Time;durP1;ratioP1;P1;durP2;ratioP2;P2;SDS_P1;SDS_P2;PMS_P1;PMS_P2;Temp;Humidity;BMP_temperature;BMP_pressure;BME280_temperature;BME280_humidity;BME280_pressure;Samples;Min_cycle;Max_cycle;Signal;HPM_P1;HPM_P2
2022/10/26 00:02:23;;;;;;;6.13;2.53;;;17.00;92.30;;;;;;5116003;27;20059;-68
2022/10/26 00:04:49;;;;;;;8.38;2.25;;;17.00;92.30;;;;;;5116068;28;20035;-67
2022/10/26 00:07:14;;;;;;;9.98;3.00;;;17.00;92.40;;;;;;5115961;28;20032;-68
2022/10/26 00:09:40;;;;;;;9.90;2.58;;;17.00;92.50;;;;;;5115899;28;20489;-68
2022/10/26 00:12:06;;;;;;;14.38;3.05;;;17.00;92.60;;;;;;5116127;28;20096;-68
2022/10/26 00:14:31;;;;;;;10.13;2.70;;;17.00;92.80;;;;;;5115745;28;20067;-68
2022/10/26 00:16:57;;;;;;;9.02;2.40;;;17.00;92.90;;;;;;5115771;28;20028;-68
2022/10/26 00:19:23;;;;;;;9.35;2.67;;;17.00;93.00;;;;;;5115990;28;20056;-68
2022/10/26 00:21:48;;;;;;;12.23;3.28;;;16.90;93.20;;;;;;5114335;28;20672;-68
2022/10/26 00:24:14;;;;;;;8.90;2.92;;;16.90;93.30;;;;;;5115623;28;20031;-68
2022/10/26 00:26:40;;;;;;;11.32;2.97;;;16.90;93.30;;;;;;5115656;28;20035;-68
2022/10/26 00:29:06;;;;;;;9.00;3.17;;;16.90;93.40;;;;;;5115520;28;20031;-68
2022/10/26 00:31:32;;;;;;;6.30;2.00;;;16.90;93.40;;;;;;5115679;28;20031;-67
2022/10/26 00:33:58;;;;;;;6.20;2.10;;;16.90;93.50;;;;;;5115750;28;20043;-67
2022/10/26 00:36:25;;;;;;;7.95;2.22;;;16.90;93.00;;;;;;5115434;27;20032;-68
2022/10/26 00:38:53;;;;;;;7.68;2.05;;;16.90;92.90;;;;;;5115388;28;20024;-67
2022/10/26 00:41:23;;;;;;;11.70;1.90;;;16.90;92.80;;;;;;5115341;28;20278;-68
2022/10/26 00:43:49;;;;;;;4.55;1.90;;;16.90;92.80;;;;;;5115247;28;20024;-67
2022/10/26 00:46:20;;;;;;;8.10;1.75;;;16.90;92.70;;;;;;5114982;28;20397;-68
2022/10/26 00:48:51;;;;;;;9.85;1.60;;;16.90;92.50;;;;;;5115182;28;20036;-67
2022/10/26 00:51:31;;;;;;;8.15;1.63;;;16.90;92.40;;;;;;5115004;28;20089;-68
2022/10/26 00:53:58;;;;;;;8.70;2.42;;;16.90;92.30;;;;;;5115190;28;20385;-68
2022/10/26 00:56:24;;;;;;;7.45;1.52;;;17.00;92.20;;;;;;5115106;28;20027;-68
2022/10/26 00:58:50;;;;;;;8.65;2.10;;;16.90;92.10;;;;;;5112754;28;20032;-68
2022/10/26 01:01:16;;;;;;;8.10;1.92;;;16.90;92.10;;;;;;5112189;28;20039;-68
2022/10/26 01:03:42;;;;;;;5.80;1.77;;;16.90;92.20;;;;;;5112420;28;20027;-68
2022/10/26 01:06:10;;;;;;;6.93;1.58;;;16.90;92.30;;;;;;5114735;28;20152;-68
2022/10/26 01:08:36;;;;;;;5.22;1.60;;;16.90;92.30;;;;;;5114924;28;20031;-68
2022/10/26 01:11:02;;;;;;;6.32;1.70;;;16.90;92.30;;;;;;5114691;28;20043;-68
2022/10/26 01:13:32;;;;;;;6.50;1.70;;;16.90;92.30;;;;;;5114216;28;20020;-66
2022/10/26 01:16:29;;;;;;;4.97;1.70;;;16.90;92.30;;;;;;5114676;28;20031;-68
2022/10/26 01:19:24;;;;;;;5.68;1.70;;;16.90;92.40;;;;;;5041501;28;20037;-68
2022/10/26 01:22:35;;;;;;;8.40;1.50;;;16.90;92.30;;;;;;5103089;28;20492;-67
2022/10/26 01:25:31;;;;;;;6.70;1.92;;;16.80;92.20;;;;;;5082819;27;20492;-67
2022/10/26 01:28:01;;;;;;;7.00;1.52;;;16.80;92.20;;;;;;5112974;28;20403;-67
2022/10/26 01:30:37;;;;;;;8.93;2.15;;;16.80;92.10;;;;;;5114225;28;20043;-67
2022/10/26 01:33:03;;;;;;;6.38;1.60;;;16.80;91.90;;;;;;5114337;28;20111;-68
2022/10/26 01:35:38;;;;;;;11.93;2.17;;;16.80;92.30;;;;;;5114086;28;20082;-67
2022/10/26 01:38:26;;;;;;;7.70;2.17;;;16.80;92.30;;;;;;5114387;28;20389;-68
2022/10/26 01:41:18;;;;;;;7.25;2.33;;;16.70;92.40;;;;;;5114282;28;20393;-67
2022/10/26 01:43:55;;;;;;;10.50;3.00;;;16.70;92.60;;;;;;5114226;28;20089;-67
2022/10/26 01:46:23;;;;;;;9.70;2.45;;;16.70;92.80;;;;;;5114135;28;20106;-68
2022/10/26 01:48:52;;;;;;;10.25;2.45;;;16.70;92.90;;;;;;5114114;28;20102;-67
2022/10/26 01:51:20;;;;;;;7.70;2.60;;;16.70;93.10;;;;;;5114103;28;20036;-68
2022/10/26 01:53:46;;;;;;;4.75;2.38;;;16.70;93.20;;;;;;5114050;28;20114;-68
2022/10/26 01:56:33;;;;;;;6.10;2.53;;;16.60;93.30;;;;;;5114033;28;20027;-67
2022/10/26 01:59:31;;;;;;;7.53;2.92;;;16.70;93.40;;;;;;5113785;28;20067;-67
2022/10/26 02:02:28;;;;;;;6.80;2.80;;;16.70;93.50;;;;;;5040766;28;20115;-68
2022/10/26 02:05:14;;;;;;;12.30;2.58;;;16.70;93.60;;;;;;5112446;28;20036;-68
2022/10/26 02:08:40;;;;;;;7.88;2.50;;;16.70;93.60;;;;;;5113834;28;20039;-68
2022/10/26 02:11:50;;;;;;;8.25;2.10;;;16.70;93.60;;;;;;5084515;28;20044;-67
2022/10/26 02:14:40;;;;;;;5.32;1.90;;;16.70;93.40;;;;;;5109546;28;20050;-68
2022/10/26 02:17:17;;;;;;;8.55;2.20;;;16.70;93.30;;;;;;5113932;28;20036;-68
2022/10/26 06:06:37;;;;;;;8.23;2.42;;;16.10;93.70;;;;;;4910408;22;20112;-68
2022/10/26 06:09:04;;;;;;;9.57;2.47;;;16.20;93.80;;;;;;5030586;28;20061;-68
2022/10/26 06:11:30;;;;;;;10.40;2.45;;;16.20;93.80;;;;;;5032387;28;20400;-65
2022/10/26 06:13:59;;;;;;;5.63;2.70;;;16.20;93.80;;;;;;5032394;28;20033;-65
2022/10/26 06:16:39;;;;;;;8.68;2.30;;;16.20;93.80;;;;;;5032715;28;20084;-63
2022/10/26 06:19:26;;;;;;;13.75;2.60;;;16.20;93.90;;;;;;5032405;28;20044;-63
2022/10/26 06:22:07;;;;;;;12.27;2.70;;;16.20;93.90;;;;;;5031857;28;20043;-63
2022/10/26 06:24:50;;;;;;;10.95;3.10;;;16.20;93.90;;;;;;5030056;28;20037;-62
2022/10/26 06:27:41;;;;;;;15.52;3.00;;;16.20;94.00;;;;;;5031863;28;20033;-63
2022/10/26 06:30:10;;;;;;;10.98;2.58;;;16.20;94.10;;;;;;5019205;28;20081;-63
2022/10/26 06:32:43;;;;;;;7.78;2.50;;;16.20;94.20;;;;;;5017474;28;20516;-62
2022/10/26 06:35:36;;;;;;;12.18;3.60;;;16.20;94.20;;;;;;4993193;28;20044;-65
2022/10/26 06:38:12;;;;;;;8.27;2.78;;;16.20;94.30;;;;;;4993023;28;20093;-67
2022/10/26 06:40:41;;;;;;;11.57;3.22;;;16.20;94.40;;;;;;4985720;28;20023;-64
2022/10/26 06:43:24;;;;;;;12.80;2.90;;;16.20;94.50;;;;;;4956640;28;20054;-63
2022/10/26 06:45:59;;;;;;;5.38;2.88;;;16.20;94.60;;;;;;4969525;28;20062;-63
2022/10/26 06:48:28;;;;;;;10.27;3.13;;;16.20;94.70;;;;;;4977730;28;20042;-62
2022/10/26 06:50:54;;;;;;;13.13;3.17;;;16.30;94.80;;;;;;4977690;28;20042;-62
2022/10/26 06:53:29;;;;;;;8.52;3.33;;;16.30;94.80;;;;;;4977897;28;20031;-63
2022/10/26 06:55:57;;;;;;;13.18;2.97;;;16.40;94.70;;;;;;4977852;28;20042;-63
2022/10/26 06:58:27;;;;;;;19.88;3.78;;;16.40;94.60;;;;;;4977883;28;20038;-65
2022/10/26 07:00:54;;;;;;;7.28;3.03;;;16.50;94.60;;;;;;4978017;28;20073;-62
2022/10/26 07:03:19;;;;;;;12.10;3.33;;;16.50;94.50;;;;;;4977627;28;20503;-63
2022/10/26 07:05:45;;;;;;;11.00;3.38;;;16.50;94.60;;;;;;4977749;28;20031;-63
2022/10/26 07:08:11;;;;;;;10.63;3.47;;;16.60;94.50;;;;;;4977108;28;20047;-67
2022/10/26 07:10:38;;;;;;;11.30;3.70;;;16.60;94.50;;;;;;4976512;28;20047;-65
2022/10/26 07:13:07;;;;;;;6.75;3.67;;;16.60;94.40;;;;;;4977170;28;20026;-65
2022/10/26 07:15:37;;;;;;;7.32;3.22;;;16.60;94.50;;;;;;4977716;28;20043;-67
2022/10/26 07:18:04;;;;;;;12.57;3.60;;;16.70;94.40;;;;;;4977283;28;20038;-65
2022/10/26 07:20:31;;;;;;;6.72;3.65;;;16.70;94.50;;;;;;4977405;28;20035;-65
2022/10/26 07:22:57;;;;;;;11.95;4.00;;;16.70;94.60;;;;;;4977052;28;20385;-65
2022/10/26 07:25:24;;;;;;;10.48;3.70;;;16.70;94.60;;;;;;4976807;28;20031;-66
2022/10/26 07:27:50;;;;;;;11.55;3.40;;;16.70;94.70;;;;;;4959897;28;20177;-65
2022/10/26 07:30:16;;;;;;;8.77;3.50;;;16.70;94.80;;;;;;4977515;28;20050;-66
2022/10/26 07:32:42;;;;;;;8.40;3.60;;;16.80;94.80;;;;;;4976979;28;20484;-64
2022/10/26 07:35:08;;;;;;;6.28;3.13;;;16.80;94.70;;;;;;4977394;28;20109;-65
2022/10/26 07:37:34;;;;;;;8.60;2.95;;;16.80;94.60;;;;;;4977745;28;20373;-65
2022/10/26 07:39:59;;;;;;;12.38;3.65;;;16.80;94.50;;;;;;4977250;28;20034;-64
2022/10/26 07:42:25;;;;;;;8.30;3.08;;;16.80;94.40;;;;;;4975259;28;20036;-65
2022/10/26 07:44:51;;;;;;;9.43;3.55;;;16.90;94.40;;;;;;4978707;28;20039;-65
2022/10/26 07:47:16;;;;;;;12.23;3.10;;;16.90;94.40;;;;;;4991623;28;20109;-65
2022/10/26 07:49:42;;;;;;;16.23;3.40;;;17.00;94.30;;;;;;4995810;28;20121;-69
2022/10/26 07:52:09;;;;;;;9.50;3.15;;;17.00;94.10;;;;;;4995895;28;20030;-65
2022/10/26 07:54:35;;;;;;;7.68;3.38;;;17.00;94.10;;;;;;4994419;28;20104;-65
2022/10/26 07:57:01;;;;;;;12.23;3.20;;;17.00;94.20;;;;;;4994869;28;20469;-69
2022/10/26 07:59:27;;;;;;;12.65;3.50;;;17.00;94.20;;;;;;4995238;28;20507;-64
2022/10/26 08:01:53;;;;;;;12.48;3.80;;;17.10;94.20;;;;;;4994981;28;20062;-64
2022/10/26 08:04:19;;;;;;;16.38;4.28;;;17.10;94.00;;;;;;4995424;28;20046;-70
2022/10/26 08:06:46;;;;;;;13.80;3.55;;;17.20;93.90;;;;;;4995217;28;20050;-63
2022/10/26 08:09:11;;;;;;;13.38;3.97;;;17.30;93.70;;;;;;4994934;28;20057;-67
2022/10/26 08:11:37;;;;;;;14.35;4.07;;;17.30;93.50;;;;;;4995264;28;20480;-66
2022/10/26 08:14:03;;;;;;;10.32;3.67;;;17.40;93.40;;;;;;4995386;28;20031;-67
2022/10/26 08:16:30;;;;;;;9.43;3.78;;;17.40;93.30;;;;;;4995137;28;20049;-66
2022/10/26 08:18:56;;;;;;;9.10;4.07;;;17.50;93.40;;;;;;4994924;28;20026;-65
2022/10/26 08:21:21;;;;;;;10.68;3.78;;;17.60;93.30;;;;;;4995314;28;20436;-64
2022/10/26 08:23:47;;;;;;;9.95;3.97;;;17.60;93.10;;;;;;4995417;28;20110;-66
2022/10/26 08:26:13;;;;;;;12.15;4.30;;;17.60;93.00;;;;;;4995417;28;20369;-64
2022/10/26 08:28:39;;;;;;;12.57;3.72;;;17.60;93.10;;;;;;4995216;28;20026;-64
2022/10/26 08:31:06;;;;;;;15.20;3.70;;;17.70;93.10;;;;;;4995484;28;20088;-65
2022/10/26 08:33:32;;;;;;;19.30;4.68;;;17.70;93.00;;;;;;4995429;28;20039;-64
2022/10/26 08:36:00;;;;;;;13.15;5.82;;;17.80;93.00;;;;;;4995412;28;20066;-64
2022/10/26 08:38:26;;;;;;;17.27;6.35;;;17.80;93.50;;;;;;4993473;28;20022;-65
2022/10/26 08:40:52;;;;;;;11.45;5.65;;;17.90;94.00;;;;;;4995260;28;20463;-64
2022/10/26 08:43:30;;;;;;;17.58;6.20;;;18.00;93.80;;;;;;4995895;28;20026;-64
2022/10/26 08:46:01;;;;;;;17.77;6.40;;;18.10;93.80;;;;;;4994765;28;20041;-63
2022/10/26 08:48:33;;;;;;;21.38;6.43;;;18.10;93.90;;;;;;4994491;28;20101;-64
2022/10/26 08:51:20;;;;;;;19.40;6.63;;;18.20;94.10;;;;;;4994914;28;20575;-64
2022/10/26 08:54:00;;;;;;;20.20;7.38;;;18.20;93.90;;;;;;4994065;28;20039;-65
2022/10/26 08:56:34;;;;;;;13.35;6.22;;;18.30;93.90;;;;;;4992770;28;20084;-64
2022/10/26 08:59:29;;;;;;;17.13;6.88;;;18.40;94.00;;;;;;4993199;28;20031;-64
2022/10/26 09:01:55;;;;;;;17.77;5.72;;;18.40;93.90;;;;;;4954118;28;20046;-65
2022/10/26 09:04:27;;;;;;;13.98;5.25;;;18.50;93.60;;;;;;4994318;28;20054;-64
2022/10/26 09:07:10;;;;;;;13.60;5.70;;;18.60;93.50;;;;;;4994429;28;20038;-64
2022/10/26 09:09:56;;;;;;;12.35;4.68;;;18.60;93.40;;;;;;4993602;28;20053;-64
2022/10/26 09:12:28;;;;;;;14.63;4.72;;;18.70;93.10;;;;;;4994795;28;20451;-65
2022/10/26 09:14:59;;;;;;;13.73;4.93;;;18.70;92.90;;;;;;4994687;28;20070;-66
2022/10/26 09:17:49;;;;;;;16.33;5.33;;;18.80;93.00;;;;;;4976118;28;20311;-66
2022/10/26 09:21:11;;;;;;;15.90;5.40;;;18.90;93.00;;;;;;4994435;28;20264;-66
2022/10/26 09:24:01;;;;;;;17.00;5.20;;;18.90;92.80;;;;;;4915558;29;20048;-65
2022/10/26 09:26:54;;;;;;;17.60;5.53;;;19.00;92.90;;;;;;4915165;29;20339;-65
2022/10/26 09:29:37;;;;;;;20.48;7.45;;;19.00;92.70;;;;;;4989442;28;20073;-65
2022/10/26 09:32:03;;;;;;;;;;;19.20;92.70;;;;;;4994649;28;20039;-65
2022/10/26 09:34:41;;;;;;;23.65;8.52;;;19.20;92.50;;;;;;4994446;28;20355;-65
2022/10/26 09:37:18;;;;;;;22.27;7.63;;;19.20;92.50;;;;;;4994216;28;20085;-64
2022/10/26 09:39:55;;;;;;;29.15;8.88;;;19.30;92.50;;;;;;4982386;28;20583;-65
2022/10/26 09:42:42;;;;;;;19.42;8.70;;;19.40;92.50;;;;;;4973536;28;20619;-64
2022/10/26 09:45:39;;;;;;;21.35;11.07;;;19.40;92.60;;;;;;4974236;28;20082;-65
2022/10/26 09:48:25;;;;;;;18.83;9.73;;;19.50;92.50;;;;;;4965378;28;20034;-70
2022/10/26 09:50:51;;;;;;;22.50;9.27;;;19.60;92.20;;;;;;4993431;28;20042;-64
2022/10/26 09:53:17;;;;;;;22.38;9.27;;;19.60;92.30;;;;;;4993553;28;20031;-65
2022/10/26 09:55:47;;;;;;;24.48;9.50;;;19.70;92.40;;;;;;4975228;28;20511;-64
2022/10/26 09:58:25;;;;;;;18.70;9.35;;;19.70;92.40;;;;;;4973925;28;20034;-65
2022/10/26 10:00:51;;;;;;;22.10;10.13;;;19.80;92.50;;;;;;4974330;28;20046;-65
2022/10/26 10:03:28;;;;;;;28.85;10.80;;;19.80;92.40;;;;;;4973441;28;20074;-65
2022/10/26 10:06:18;;;;;;;20.92;9.45;;;19.90;92.30;;;;;;4973890;28;20035;-65
2022/10/26 10:09:09;;;;;;;20.85;9.27;;;20.00;92.10;;;;;;4935661;29;20078;-65
2022/10/26 10:11:58;;;;;;;23.33;10.75;;;20.00;92.00;;;;;;4935476;29;20082;-65
2022/10/26 10:14:27;;;;;;;17.85;9.70;;;20.10;91.80;;;;;;4935422;29;20039;-66
2022/10/26 10:17:01;;;;;;;21.35;9.20;;;20.20;91.40;;;;;;4935985;29;20410;-65
2022/10/26 10:19:29;;;;;;;28.52;11.07;;;20.20;91.50;;;;;;4949071;29;20031;-65
2022/10/26 10:22:00;;;;;;;19.33;8.38;;;20.30;91.50;;;;;;4954348;28;20031;-66
2022/10/26 10:24:34;;;;;;;23.10;9.27;;;20.40;91.80;;;;;;4955073;28;20131;-65
2022/10/26 10:27:15;;;;;;;16.58;8.15;;;20.40;91.90;;;;;;4954904;28;20047;-65
2022/10/26 10:29:51;;;;;;;17.95;8.07;;;20.50;91.90;;;;;;4955035;28;20043;-65
2022/10/26 10:32:20;;;;;;;21.08;9.25;;;20.60;92.00;;;;;;4969695;28;20127;-66
2022/10/26 10:34:47;;;;;;;22.48;9.85;;;20.60;92.20;;;;;;4954744;28;20535;-65
2022/10/26 10:37:24;;;;;;;23.85;9.35;;;20.70;91.70;;;;;;4954717;28;20120;-65
2022/10/26 10:39:50;;;;;;;20.40;9.38;;;;;;;;;;4954688;28;20081;-65
2022/10/26 10:42:22;;;;;;;24.55;9.38;;;20.80;91.10;;;;;;4954960;29;20051;-65
2022/10/26 10:44:53;;;;;;;22.13;9.32;;;20.90;91.30;;;;;;4954567;28;20397;-65
2022/10/26 10:47:26;;;;;;;19.65;8.60;;;20.90;91.20;;;;;;4954973;28;20035;-65
2022/10/26 10:50:06;;;;;;;14.90;8.02;;;21.00;91.30;;;;;;4954660;29;20082;-65
2022/10/26 10:52:34;;;;;;;21.40;10.15;;;21.00;91.60;;;;;;4954839;28;20047;-66
2022/10/26 10:55:17;;;;;;;21.70;9.77;;;21.10;91.40;;;;;;4954980;29;20110;-65
2022/10/26 10:58:15;;;;;;;24.80;9.48;;;21.10;90.90;;;;;;4954621;28;20106;-65
2022/10/26 11:00:47;;;;;;;31.75;10.32;;;21.10;90.70;;;;;;4954556;28;20508;-65
2022/10/26 11:03:30;;;;;;;25.73;10.30;;;21.20;90.60;;;;;;4954361;29;20046;-66
2022/10/26 11:06:23;;;;;;;29.27;10.63;;;21.10;90.00;;;;;;4954810;29;20390;-65
2022/10/26 11:09:05;;;;;;;27.50;9.70;;;21.10;90.20;;;;;;4993076;28;20054;-66
2022/10/26 11:11:39;;;;;;;23.45;11.20;;;21.00;90.30;;;;;;4993148;28;20065;-65
2022/10/26 11:14:27;;;;;;;34.72;10.82;;;21.00;90.60;;;;;;4993255;28;20034;-66
2022/10/26 11:17:20;;;;;;;24.30;11.75;;;21.00;90.70;;;;;;4993098;28;20030;-71
2022/10/26 11:19:48;;;;;;;22.13;10.10;;;21.10;90.80;;;;;;4988865;28;20496;-66
2022/10/26 11:22:21;;;;;;;25.25;10.80;;;21.20;90.70;;;;;;4993383;28;20085;-66
2022/10/26 11:24:53;;;;;;;25.52;10.82;;;21.20;90.40;;;;;;4993398;28;20504;-66
2022/10/26 11:27:24;;;;;;;23.52;9.63;;;21.30;89.80;;;;;;4993064;28;20081;-66
2022/10/26 11:30:06;;;;;;;22.77;9.45;;;21.40;89.30;;;;;;4992820;28;20047;-66
2022/10/26 11:32:41;;;;;;;21.20;8.75;;;21.30;89.00;;;;;;4993896;28;20038;-66
2022/10/26 11:35:18;;;;;;;19.05;8.68;;;21.40;88.90;;;;;;4996489;28;20062;-65
2022/10/26 11:37:50;;;;;;;18.83;8.80;;;21.40;88.40;;;;;;4995595;28;20033;-69
2022/10/26 11:40:25;;;;;;;27.10;9.55;;;21.30;88.60;;;;;;4995413;28;20038;-68
2022/10/26 11:43:02;;;;;;;23.00;8.35;;;21.30;89.00;;;;;;4995716;28;20057;-66
2022/10/26 11:45:35;;;;;;;19.08;8.50;;;21.30;89.10;;;;;;4995563;28;20085;-65
2022/10/26 11:48:00;;;;;;;;;;;21.30;89.80;;;;;;4996074;28;20038;-66
2022/10/26 11:50:34;;;;;;;16.30;7.95;;;21.20;88.40;;;;;;4996008;28;20398;-66
2022/10/26 11:53:15;;;;;;;18.42;7.90;;;21.20;87.80;;;;;;4996277;28;20117;-66
2022/10/26 11:55:41;;;;;;;19.70;7.53;;;21.20;87.80;;;;;;4996315;28;20496;-65
2022/10/26 11:58:10;;;;;;;19.23;8.20;;;21.20;87.00;;;;;;4995417;28;20113;-66
2022/10/26 12:00:59;;;;;;;18.23;7.15;;;21.10;87.60;;;;;;4995759;28;20037;-64
2022/10/26 12:03:35;;;;;;;17.65;7.53;;;21.10;87.50;;;;;;4995032;28;20046;-65
2022/10/26 12:06:01;;;;;;;21.63;8.05;;;21.10;87.40;;;;;;4995733;28;20038;-65
2022/10/26 12:08:31;;;;;;;19.42;7.72;;;21.20;86.80;;;;;;4995591;28;20042;-66
2022/10/26 12:11:06;;;;;;;25.73;8.05;;;21.20;86.80;;;;;;4995456;28;20052;-66
2022/10/26 12:13:36;;;;;;;15.52;7.38;;;21.30;87.00;;;;;;4995411;28;20031;-67
2022/10/26 12:16:23;;;;;;;19.25;8.20;;;21.40;86.80;;;;;;4995308;28;20035;-65
2022/10/26 12:18:54;;;;;;;20.70;8.20;;;21.50;86.50;;;;;;4995822;28;20392;-65
2022/10/26 12:21:20;;;;;;;23.38;8.02;;;21.50;86.50;;;;;;4995276;28;20524;-65
2022/10/26 12:24:14;;;;;;;16.40;8.10;;;21.50;86.60;;;;;;4995423;28;20066;-65
2022/10/26 12:26:52;;;;;;;20.10;8.15;;;21.40;86.80;;;;;;4995450;28;20071;-66
2022/10/26 12:29:28;;;;;;;18.67;8.02;;;21.40;87.20;;;;;;4995410;28;20038;-65
2022/10/26 12:31:54;;;;;;;21.95;8.93;;;21.30;87.60;;;;;;4995900;28;20038;-65
2022/10/26 12:34:30;;;;;;;22.65;8.38;;;21.20;88.10;;;;;;4994930;28;20039;-65
2022/10/26 12:36:56;;;;;;;16.20;9.25;;;21.20;88.40;;;;;;4993492;28;20034;-65
2022/10/26 12:39:36;;;;;;;18.02;7.55;;;21.20;88.90;;;;;;4995124;28;20100;-65
2022/10/26 12:42:04;;;;;;;16.55;7.22;;;21.10;88.90;;;;;;4994973;28;20050;-66
2022/10/26 12:44:38;;;;;;;18.33;8.88;;;21.10;88.90;;;;;;4994645;28;20077;-70
2022/10/26 12:47:04;;;;;;;15.85;8.10;;;21.10;89.00;;;;;;4994850;28;20604;-65
2022/10/26 12:50:07;;;;;;;25.30;8.10;;;21.10;89.20;;;;;;4995058;28;20062;-67
2022/10/26 12:53:08;;;;;;;25.60;8.68;;;21.00;89.40;;;;;;4991429;28;20118;-64
2022/10/26 12:55:45;;;;;;;16.23;8.70;;;21.00;89.30;;;;;;4982978;28;20031;-65
2022/10/26 12:58:51;;;;;;;23.95;8.15;;;21.00;89.00;;;;;;4993678;28;20068;-65
2022/10/26 13:01:39;;;;;;;17.42;7.63;;;21.00;89.10;;;;;;4994503;28;20031;-65
2022/10/26 13:04:41;;;;;;;20.20;7.55;;;20.90;89.40;;;;;;4993911;28;20043;-65
2022/10/26 13:07:24;;;;;;;14.45;8.40;;;20.90;89.70;;;;;;4980668;28;20041;-65
2022/10/26 13:10:05;;;;;;;22.00;8.95;;;20.90;90.10;;;;;;4976201;28;20502;-66
2022/10/26 13:12:48;;;;;;;22.85;7.85;;;20.90;90.40;;;;;;4993385;28;20046;-66
2022/10/26 13:15:27;;;;;;;22.27;8.38;;;21.00;90.50;;;;;;4993239;28;20097;-65
2022/10/26 13:17:58;;;;;;;20.02;7.85;;;21.00;90.50;;;;;;4993516;28;20048;-65
2022/10/26 13:20:24;;;;;;;26.17;8.98;;;21.00;90.30;;;;;;4993355;28;20023;-64
2022/10/26 13:22:50;;;;;;;23.40;7.45;;;21.00;90.10;;;;;;4992880;28;20117;-66
2022/10/26 13:25:28;;;;;;;23.55;7.70;;;21.00;90.00;;;;;;4993907;28;20384;-66
2022/10/26 13:28:01;;;;;;;17.95;7.43;;;21.10;90.00;;;;;;4993383;28;20042;-65
2022/10/26 13:30:33;;;;;;;18.15;6.85;;;21.20;90.00;;;;;;4993488;28;20408;-65
2022/10/26 13:33:00;;;;;;;21.88;7.13;;;21.20;90.00;;;;;;4992918;28;20086;-65
2022/10/26 13:35:27;;;;;;;11.65;6.20;;;21.30;89.20;;;;;;4993747;28;20113;-64
2022/10/26 13:37:54;;;;;;;20.50;6.10;;;21.40;88.00;;;;;;4993868;28;20034;-68
2022/10/26 13:40:24;;;;;;;17.13;6.72;;;21.40;87.20;;;;;;4993520;28;20117;-69
2022/10/26 13:42:57;;;;;;;14.30;6.82;;;21.50;87.60;;;;;;4993382;28;20034;-69
2022/10/26 13:45:40;;;;;;;21.15;10.18;;;21.50;87.50;;;;;;4993884;28;20076;-66
2022/10/26 13:48:29;;;;;;;20.90;9.10;;;21.50;87.80;;;;;;4993350;28;20038;-66
2022/10/26 13:50:58;;;;;;;19.15;7.85;;;21.60;86.80;;;;;;4992938;28;20093;-65
2022/10/26 13:53:47;;;;;;;17.27;6.60;;;21.60;87.30;;;;;;4992951;28;20030;-65
2022/10/26 13:56:36;;;;;;;16.30;7.38;;;21.60;85.50;;;;;;4992740;28;20109;-69
2022/10/26 13:59:12;;;;;;;18.75;7.03;;;21.50;86.10;;;;;;4992555;28;20042;-68
2022/10/26 14:01:38;;;;;;;18.75;6.05;;;21.50;86.40;;;;;;4993052;28;20049;-66
2022/10/26 14:04:24;;;;;;;19.52;7.28;;;21.50;85.40;;;;;;4993252;28;20030;-69
2022/10/26 14:06:51;;;;;;;27.30;8.90;;;21.50;84.80;;;;;;4992129;28;20092;-66
2022/10/26 14:09:18;;;;;;;19.70;7.20;;;21.50;84.90;;;;;;4992709;28;20541;-64
2022/10/26 14:11:50;;;;;;;19.63;6.82;;;21.50;85.70;;;;;;4993494;28;20042;-68
2022/10/26 14:14:24;;;;;;;17.17;6.30;;;21.40;86.20;;;;;;4993333;28;20113;-67
2022/10/26 14:16:52;;;;;;;20.92;6.32;;;21.30;86.70;;;;;;4993400;28;20061;-65
2022/10/26 14:19:28;;;;;;;13.45;6.50;;;21.30;87.00;;;;;;4992870;28;20030;-65
2022/10/26 14:21:54;;;;;;;11.50;6.28;;;21.30;87.30;;;;;;4992543;28;20080;-66
2022/10/26 14:24:27;;;;;;;17.75;6.30;;;21.20;87.50;;;;;;4992608;28;20078;-65
2022/10/26 14:26:53;;;;;;;18.10;7.03;;;21.20;87.40;;;;;;4992836;28;20035;-66
2022/10/26 14:29:22;;;;;;;21.33;6.65;;;21.10;87.30;;;;;;4993129;28;20041;-65
2022/10/26 14:31:48;;;;;;;24.35;8.35;;;21.10;87.30;;;;;;4956565;28;20070;-67
2022/10/26 14:34:15;;;;;;;22.15;8.68;;;21.10;87.80;;;;;;4954096;29;20381;-65
2022/10/26 14:36:53;;;;;;;21.83;9.90;;;21.10;88.40;;;;;;4954987;29;20046;-68
2022/10/26 14:39:33;;;;;;;24.33;9.65;;;21.10;89.70;;;;;;4954300;29;20039;-69
2022/10/26 14:42:02;;;;;;;18.00;9.43;;;21.00;90.00;;;;;;4953980;29;20039;-65
2022/10/26 14:44:28;;;;;;;24.38;9.15;;;21.00;90.30;;;;;;4954740;29;20586;-65
2022/10/26 14:46:54;;;;;;;20.90;8.32;;;21.00;90.40;;;;;;4953865;29;20126;-65
2022/10/26 14:49:23;;;;;;;25.13;9.45;;;21.00;90.60;;;;;;4954451;29;20474;-65
2022/10/26 14:51:58;;;;;;;18.45;8.80;;;21.00;90.50;;;;;;4954742;29;20036;-65
2022/10/26 14:54:27;;;;;;;15.23;8.35;;;21.00;90.50;;;;;;4954643;29;20118;-65
2022/10/26 14:56:53;;;;;;;20.48;9.40;;;21.00;90.40;;;;;;4954074;29;20449;-66
2022/10/26 14:59:26;;;;;;;31.05;12.05;;;21.00;90.50;;;;;;4954671;29;20034;-65
2022/10/26 15:02:10;;;;;;;26.95;11.65;;;21.00;90.50;;;;;;4955120;29;20039;-65
2022/10/26 15:04:38;;;;;;;30.85;11.45;;;20.90;90.70;;;;;;4954991;29;20108;-65
2022/10/26 15:07:17;;;;;;;21.23;11.40;;;20.90;90.90;;;;;;4956227;28;20122;-65
2022/10/26 15:09:45;;;;;;;31.05;11.75;;;20.80;91.00;;;;;;4958175;29;20039;-65
2022/10/26 15:12:32;;;;;;;28.05;11.35;;;20.80;91.10;;;;;;4958321;29;20043;-65
2022/10/26 15:15:12;;;;;;;23.45;10.65;;;20.80;91.10;;;;;;4958613;29;20031;-65
2022/10/26 15:17:41;;;;;;;17.33;9.85;;;20.80;91.20;;;;;;4958502;29;20042;-65
2022/10/26 15:20:19;;;;;;;22.45;11.20;;;20.70;91.20;;;;;;4958224;29;20403;-65
2022/10/26 15:22:54;;;;;;;24.58;11.80;;;20.70;91.30;;;;;;4940116;29;20486;-65
2022/10/26 15:25:24;;;;;;;18.83;11.07;;;20.70;91.30;;;;;;4957478;29;20038;-65
2022/10/26 15:27:50;;;;;;;26.30;11.85;;;20.60;91.30;;;;;;4956240;29;20035;-65
2022/10/26 15:30:23;;;;;;;24.58;11.32;;;20.60;91.40;;;;;;4958106;29;20500;-65
2022/10/26 15:32:50;;;;;;;27.65;11.15;;;20.60;91.50;;;;;;4957529;29;20042;-65
2022/10/26 15:35:19;;;;;;;21.50;10.63;;;20.60;91.60;;;;;;4957397;29;20035;-65
2022/10/26 15:37:49;;;;;;;29.80;11.18;;;20.50;91.60;;;;;;4957353;29;20031;-65
2022/10/26 15:40:16;;;;;;;32.70;11.55;;;20.50;91.70;;;;;;4957777;29;20114;-66
2022/10/26 15:42:44;;;;;;;29.55;11.10;;;20.50;91.90;;;;;;4956999;29;20050;-66
2022/10/26 15:45:28;;;;;;;30.40;10.98;;;20.40;91.90;;;;;;4956663;29;20039;-65
2022/10/26 15:47:56;;;;;;;25.27;11.73;;;20.40;92.00;;;;;;4956815;29;20045;-65
2022/10/26 15:50:24;;;;;;;29.63;11.27;;;20.40;92.10;;;;;;4957221;29;20062;-65
2022/10/26 15:52:58;;;;;;;23.83;12.45;;;20.30;92.20;;;;;;4957655;29;20043;-65
2022/10/26 15:55:24;;;;;;;24.55;11.60;;;20.30;92.30;;;;;;4957593;29;20046;-64
2022/10/26 15:57:50;;;;;;;23.08;12.35;;;20.30;92.30;;;;;;4957540;29;20031;-65
2022/10/26 16:00:17;;;;;;;22.23;12.23;;;20.20;92.30;;;;;;4957435;29;20391;-65
2022/10/26 16:02:44;;;;;;;21.50;12.57;;;20.20;92.40;;;;;;4957311;29;20027;-67
2022/10/26 16:05:12;;;;;;;27.50;12.57;;;20.20;92.40;;;;;;4957259;29;20042;-65
2022/10/26 16:07:39;;;;;;;24.75;12.55;;;20.10;92.40;;;;;;4956894;29;20054;-65
2022/10/26 16:10:05;;;;;;;24.45;12.50;;;20.10;92.50;;;;;;4956918;29;20509;-64
2022/10/26 16:12:31;;;;;;;31.00;11.23;;;20.10;92.50;;;;;;4956770;29;20039;-65
2022/10/26 16:14:59;;;;;;;23.85;11.43;;;20.00;92.60;;;;;;4957101;29;20035;-65
2022/10/26 16:17:25;;;;;;;19.00;11.23;;;20.00;93.00;;;;;;4957273;29;20039;-65
2022/10/26 16:19:51;;;;;;;24.65;12.50;;;19.90;92.80;;;;;;4956405;28;20477;-64
2022/10/26 16:22:16;;;;;;;22.20;12.30;;;19.90;92.80;;;;;;4957210;29;20032;-65
2022/10/26 16:24:42;;;;;;;20.80;11.98;;;19.90;92.90;;;;;;4956787;29;20524;-65
2022/10/26 16:27:07;;;;;;;27.48;12.73;;;19.80;92.90;;;;;;4957240;29;20043;-65
2022/10/26 16:29:33;;;;;;;21.85;13.18;;;19.80;92.90;;;;;;4956859;29;20066;-66
2022/10/26 16:31:59;;;;;;;31.20;13.52;;;19.80;93.00;;;;;;4957099;29;20054;-65
2022/10/26 16:34:24;;;;;;;29.75;13.18;;;19.80;93.10;;;;;;4956809;29;20111;-65
2022/10/26 16:36:50;;;;;;;30.58;13.20;;;19.70;93.10;;;;;;4956510;29;20482;-65
2022/10/26 16:39:16;;;;;;;27.33;13.18;;;19.70;93.10;;;;;;4954602;29;20307;-65
2022/10/26 16:41:41;;;;;;;27.42;12.90;;;19.70;93.20;;;;;;4953881;29;20095;-65
2022/10/26 16:44:09;;;;;;;27.27;12.40;;;19.70;93.30;;;;;;4953485;29;20039;-65
2022/10/26 16:46:35;;;;;;;22.88;12.70;;;19.70;93.40;;;;;;4947983;28;20081;-65
2022/10/26 16:49:01;;;;;;;30.52;12.27;;;19.70;93.40;;;;;;4992101;28;20047;-65
2022/10/26 16:51:27;;;;;;;25.42;12.75;;;19.70;93.50;;;;;;4992480;28;20042;-65
2022/10/26 16:53:55;;;;;;;35.42;14.15;;;19.60;93.50;;;;;;4993349;28;20034;-65
2022/10/26 16:56:23;;;;;;;23.77;12.73;;;19.60;93.50;;;;;;4994937;28;20485;-64
2022/10/26 16:58:49;;;;;;;26.20;13.32;;;19.60;93.60;;;;;;4975244;28;20452;-65